Time;durP1;ratioP1;P1;durP2;ratioP2;P2;SDS_P1;SDS_P2;PMS_P1;PMS_P2;Temp;Humidity;BMP_temperature;BMP_pressure;BME280_temperature;BME280_humidity;BME280_pressure;Samples;Min_cycle;Max_cycle;Signal;HPM_P1;HPM_P2
2022/04/21 00:01:26;;;;;;;;;;;;;;;;;;5068466;28;19921;-85
2022/04/21 00:03:51;;;;;;;;;;;;;;;;;;5052287;28;20411;-85
2022/04/21 00:06:17;;;;;;;;;;;;;;;;;;5053796;28;20015;-85
2022/04/21 00:08:42;;;;;;;;;;;;;;;;;;5053551;28;19952;-84
2022/04/21 00:11:07;;;;;;;;;;;;;;;;;;5068169;28;19924;-84
2022/04/21 00:13:33;;;;;;;;;;;;;;;;;;5072242;28;19909;-85
2022/04/21 00:15:59;;;;;;;;;;;;;;;;;;5072037;28;19939;-84
2022/04/21 00:18:24;;;;;;;;;;;;;;;;;;5072362;28;19908;-85
2022/04/21 00:20:49;;;;;;;;;;;;;;;;;;5072342;28;19917;-84
2022/04/21 00:23:26;;;;;;;;;;;;;;;;;;5054919;28;19913;-84
2022/04/21 00:25:53;;;;;;;;;;;;;;;;;;5052109;28;19917;-84
2022/04/21 00:28:18;;;;;;;;;;;;;;;;;;5052127;28;19913;-84
2022/04/21 00:30:43;;;;;;;;;;;;;;;;;;5062639;28;20021;-85
2022/04/21 00:33:08;;;;;;;;;;;;;;;;;;5072051;28;19908;-85
2022/04/21 00:35:33;;;;;;;;;;;;;;;;;;5073117;28;20353;-85
2022/04/21 00:37:58;;;;;;;;;;;;;;;;;;5073416;28;19908;-85
2022/04/21 00:40:24;;;;;;;;;;;;;;;;;;5067860;28;19924;-84
2022/04/21 00:42:49;;;;;;;;;;;;;;;;;;5052185;28;19919;-85
2022/04/21 00:45:14;;;;;;;;;;;;;;;;;;5051870;28;19959;-85
2022/04/21 00:47:44;;;;;;;;;;;;;;;;;;5051812;28;20332;-84
2022/04/21 00:50:09;;;;;;;;;;;;;;;;;;5058480;28;20275;-84
2022/04/21 00:52:34;;;;;;;;;;;;;;;;;;5073259;28;19998;-85
2022/04/21 00:54:59;;;;;;;;;;;;;;;;;;5077185;28;20364;-85
2022/04/21 00:57:25;;;;;;;;;;;;;;;;;;5075822;28;19909;-84
2022/04/21 00:59:51;;;;;;;;;;;;;;;;;;5072531;28;19959;-85
2022/04/21 01:04:59;;;;;;;;;;;;;;;;;;5056753;28;19916;-85
2022/04/21 01:07:25;;;;;;;;;;;;;;;;;;5056967;28;19908;-85
2022/04/21 01:09:50;;;;;;;;;;;;;;;;;;5055088;28;20391;-85
2022/04/21 01:12:15;;;;;;;;;;;;;;;;;;5056804;28;19916;-84
2022/04/21 01:14:40;;;;;;;;;;;;;;;;;;5055642;28;19916;-84
2022/04/21 01:17:05;;;;;;;;;;;;;;;;;;5056668;28;19919;-84
2022/04/21 01:19:31;;;;;;;;;;;;;;;;;;5054754;28;20007;-84
2022/04/21 01:21:56;;;;;;;;;;;;;;;;;;5071980;28;19917;-84
2022/04/21 01:24:21;;;;;;;;;;;;;;;;;;5088735;28;19919;-84
2022/04/21 01:26:46;;;;;;;;;;;;;;;;;;5088777;28;19913;-85
2022/04/21 01:29:12;;;;;;;;;;;;;;;;;;5088773;28;19908;-84
2022/04/21 01:31:38;;;;;;;;;;;;;;;;;;5087999;28;19917;-84
2022/04/21 01:34:03;;;;;;;;;;;;;;;;;;5088671;28;20361;-84
2022/04/21 01:36:28;;;;;;;;;;;;;;;;;;5088564;28;19909;-84
2022/04/21 01:41:37;;;;;;;;;;;;;;;;;;5056347;28;19924;-84
2022/04/21 01:44:03;;;;;;;;;;;;;;;;;;5055991;28;19909;-84
2022/04/21 01:46:28;;;;;;;;;;;;;;;;;;5088154;28;19913;-85
2022/04/21 01:48:53;;;;;;;;;;;;;;;;;;5065438;28;19912;-85
2022/04/21 01:51:18;;;;;;;;;;;;;;;;;;5059863;28;19955;-84
2022/04/21 01:53:43;;;;;;;;;;;;;;;;;;5054432;28;19916;-84
2022/04/21 01:56:08;;;;;;;;;;;;;;;;;;5054709;28;19915;-84
2022/04/21 01:58:33;;;;;;;;;;;;;;;;;;5061817;28;19913;-84
2022/04/21 02:00:58;;;;;;;;;;;;;;;;;;5074456;28;19983;-84
2022/04/21 02:03:23;;;;;;;;;;;;;;;;;;5074456;28;20474;-84
2022/04/21 02:05:49;;;;;;;;;;;;;;;;;;5073160;28;19930;-84
2022/04/21 02:08:14;;;;;;;;;;;;;;;;;;5070276;28;20013;-84
2022/04/21 02:10:39;;;;;;;;;;;;;;;;;;5054475;28;20340;-84
2022/04/21 02:13:05;;;;;;;;;;;;;;;;;;5054436;28;19909;-84
2022/04/21 02:15:30;;;;;;;;;;;;;;;;;;5060868;28;19919;-84
2022/04/21 02:17:56;;;;;;;;;;;;;;;;;;5055366;28;19913;-84
2022/04/21 02:20:21;;;;;;;;;;;;;;;;;;5073292;28;19917;-84
2022/04/21 02:22:46;;;;;;;;;;;;;;;;;;5074256;28;19919;-84
2022/04/21 02:25:11;;;;;;;;;;;;;;;;;;5073925;28;19916;-84
2022/04/21 02:27:37;;;;;;;;;;;;;;;;;;5074160;28;19919;-84
2022/04/21 02:30:02;;;;;;;;;;;;;;;;;;5074573;28;20014;-84
2022/04/21 02:32:27;;;;;;;;;;;;;;;;;;5073686;28;20330;-84
2022/04/21 02:34:55;;;;;;;;;;;;;;;;;;5073192;28;19962;-84
2022/04/21 02:37:21;;;;;;;;;;;;;;;;;;5074027;28;19909;-84
2022/04/21 02:39:46;;;;;;;;;;;;;;;;;;5069636;28;19921;-84
2022/04/21 02:42:11;;;;;;;;;;;;;;;;;;5055073;28;19919;-84
2022/04/21 02:44:37;;;;;;;;;;;;;;;;;;5053887;28;19919;-84
2022/04/21 02:47:02;;;;;;;;;;;;;;;;;;5054832;28;19928;-84
2022/04/21 02:49:27;;;;;;;;;;;;;;;;;;5054649;28;20057;-84
2022/04/21 02:51:52;;;;;;;;;;;;;;;;;;5055025;28;20403;-84
2022/04/21 02:57:20;;;;;;;;;;;;;;;;;;5054936;28;19962;-84
2022/04/21 02:59:45;;;;;;;;;;;;;;;;;;5068030;28;19912;-84
2022/04/21 03:02:10;;;;;;;;;;;;;;;;;;5072583;28;19999;-84
2022/04/21 03:04:35;;;;;;;;;;;;;;;;;;5072999;28;19915;-84
2022/04/21 03:07:00;;;;;;;;;;;;;;;;;;5074642;28;20454;-84
2022/04/21 03:09:25;;;;;;;;;;;;;;;;;;5069182;28;19920;-84
2022/04/21 03:11:50;;;;;;;;;;;;;;;;;;5052983;28;20434;-84
2022/04/21 03:14:18;;;;;;;;;;;;;;;;;;5053269;28;20000;-84
2022/04/21 03:16:43;;;;;;;;;;;;;;;;;;5053919;28;19909;-84
2022/04/21 03:19:08;;;;;;;;;;;;;;;;;;5062078;28;19908;-84
2022/04/21 03:24:20;;;;;;;;;;;;;;;;;;5074387;28;19919;-84
2022/04/21 03:26:45;;;;;;;;;;;;;;;;;;5073130;28;20292;-84
2022/04/21 03:29:10;;;;;;;;;;;;;;;;;;5074240;28;20263;-84
2022/04/21 03:31:36;;;;;;;;;;;;;;;;;;5072711;28;20705;-84
2022/04/21 03:34:05;;;;;;;;;;;;;;;;;;5072914;28;19909;-84
2022/04/21 03:36:31;;;;;;;;;;;;;;;;;;5071889;28;19908;-84
2022/04/21 03:38:56;;;;;;;;;;;;;;;;;;5074231;28;19919;-84
2022/04/21 03:41:21;;;;;;;;;;;;;;;;;;5073801;28;19913;-84
2022/04/21 03:43:46;;;;;;;;;;;;;;;;;;5074004;28;19913;-84
2022/04/21 03:46:12;;;;;;;;;;;;;;;;;;5073556;28;19912;-84
2022/04/21 03:48:37;;;;;;;;;;;;;;;;;;5068581;28;20304;-84
2022/04/21 03:51:02;;;;;;;;;;;;;;;;;;5053922;28;19909;-84
2022/04/21 03:53:27;;;;;;;;;;;;;;;;;;5052616;28;19913;-84
2022/04/21 03:55:52;;;;;;;;;;;;;;;;;;5052400;28;20352;-84
2022/04/21 03:58:17;;;;;;;;;;;;;;;;;;5067220;28;19916;-84
2022/04/21 04:00:42;;;;;;;;;;;;;;;;;;5072356;28;19912;-84
2022/04/21 04:03:08;;;;;;;;;;;;;;;;;;5072157;28;20325;-84
2022/04/21 04:05:33;;;;;;;;;;;;;;;;;;5072297;28;19916;-84
2022/04/21 04:10:52;;;;;;;;;;;;;;;;;;5055373;28;19959;-84
2022/04/21 04:13:17;;;;;;;;;;;;;;;;;;5053496;28;20330;-84
2022/04/21 04:15:44;;;;;;;;;;;;;;;;;;5053464;28;20319;-84
2022/04/21 04:18:09;;;;;;;;;;;;;;;;;;5064541;28;19921;-85
2022/04/21 04:20:34;;;;;;;;;;;;;;;;;;5072064;28;19912;-84
2022/04/21 04:22:59;;;;;;;;;;;;;;;;;;5072097;28;19909;-85
2022/04/21 04:25:24;;;;;;;;;;;;;;;;;;5072103;28;20359;-84
2022/04/21 04:27:49;;;;;;;;;;;;;;;;;;5071675;28;19920;-84
2022/04/21 04:30:15;;;;;;;;;;;;;;;;;;5072005;28;19909;-84
2022/04/21 04:32:40;;;;;;;;;;;;;;;;;;5072066;28;19912;-84
2022/04/21 04:35:05;;;;;;;;;;;;;;;;;;5072070;28;20395;-84
2022/04/21 04:37:30;;;;;;;;;;;;;;;;;;5067959;28;19939;-84
2022/04/21 04:39:55;;;;;;;;;;;;;;;;;;5051733;28;20015;-85
2022/04/21 04:42:20;;;;;;;;;;;;;;;;;;5051913;28;19909;-85
2022/04/21 04:44:46;;;;;;;;;;;;;;;;;;5051989;28;20072;-84
2022/04/21 04:47:11;;;;;;;;;;;;;;;;;;5055806;28;19966;-84
2022/04/21 04:49:36;;;;;;;;;;;;;;;;;;5072055;28;19958;-84
2022/04/21 04:52:01;;;;;;;;;;;;;;;;;;5071688;28;19970;-84
2022/04/21 04:54:29;;;;;;;;;;;;;;;;;;5073091;28;19943;-84
2022/04/21 04:56:54;;;;;;;;;;;;;;;;;;5070981;28;19916;-85
2022/04/21 04:59:20;;;;;;;;;;;;;;;;;;5071843;28;19916;-84
2022/04/21 05:01:48;;;;;;;;;;;;;;;;;;5071704;28;19920;-84
2022/04/21 05:04:13;;;;;;;;;;;;;;;;;;5071417;28;19916;-85
2022/04/21 05:06:38;;;;;;;;;;;;;;;;;;5071898;28;20280;-84
2022/04/21 05:09:03;;;;;;;;;;;;;;;;;;5070481;28;19919;-84
2022/04/21 05:11:28;;;;;;;;;;;;;;;;;;5071790;28;19958;-84
2022/04/21 05:13:54;;;;;;;;;;;;;;;;;;5072919;28;19915;-85
2022/04/21 05:16:19;;;;;;;;;;;;;;;;;;5071814;28;19913;-85
2022/04/21 05:18:44;;;;;;;;;;;;;;;;;;5072150;28;19918;-85
2022/04/21 05:21:09;;;;;;;;;;;;;;;;;;5071538;28;19982;-84
2022/04/21 05:23:34;;;;;;;;;;;;;;;;;;5072904;28;19957;-85
2022/04/21 05:25:59;;;;;;;;;;;;;;;;;;5071583;28;19961;-84
2022/04/21 05:28:24;;;;;;;;;;;;;;;;;;5067783;28;20321;-84
2022/04/21 05:30:56;;;;;;;;;;;;;;;;;;5052752;28;20380;-84
2022/04/21 05:33:21;;;;;;;;;;;;;;;;;;5051622;28;20292;-85
2022/04/21 05:35:46;;;;;;;;;;;;;;;;;;5051339;28;20368;-85
2022/04/21 05:38:11;;;;;;;;;;;;;;;;;;5063528;28;19912;-85
2022/04/21 05:40:36;;;;;;;;;;;;;;;;;;5074599;28;19912;-84
2022/04/21 05:43:01;;;;;;;;;;;;;;;;;;5076438;28;19919;-85
2022/04/21 05:45:27;;;;;;;;;;;;;;;;;;5074976;28;19912;-85
2022/04/21 05:47:52;;;;;;;;;;;;;;;;;;5075280;28;19916;-85
2022/04/21 05:50:17;;;;;;;;;;;;;;;;;;5062138;28;19913;-84
2022/04/21 05:52:42;;;;;;;;;;;;;;;;;;5066995;28;19912;-84
2022/04/21 05:55:07;;;;;;;;;;;;;;;;;;5074401;28;19917;-85
2022/04/21 05:57:32;;;;;;;;;;;;;;;;;;5075772;28;19912;-85
2022/04/21 05:59:57;;;;;;;;;;;;;;;;;;5072530;28;19920;-85
2022/04/21 06:02:23;;;;;;;;;;;;;;;;;;5075623;28;19912;-85
2022/04/21 06:04:48;;;;;;;;;;;;;;;;;;5074348;28;19909;-85
2022/04/21 06:07:13;;;;;;;;;;;;;;;;;;5074534;28;20009;-86
2022/04/21 06:09:39;;;;;;;;;;;;;;;;;;5074954;28;20418;-85
2022/04/21 06:12:04;;;;;;;;;;;;;;;;;;5074332;28;20360;-85
2022/04/21 06:14:29;;;;;;;;;;;;;;;;;;5070658;28;19908;-85
2022/04/21 06:16:54;;;;;;;;;;;;;;;;;;5071220;28;20007;-85
2022/04/21 06:19:19;;;;;;;;;;;;;;;;;;5059956;28;19913;-85
2022/04/21 06:21:44;;;;;;;;;;;;;;;;;;5061320;28;20367;-85
2022/04/21 06:24:10;;;;;;;;;;;;;;;;;;5074209;28;19923;-85
2022/04/21 06:26:35;;;;;;;;;;;;;;;;;;5073537;28;20322;-85
2022/04/21 06:29:02;;;;;;;;;;;;;;;;;;5070017;28;20422;-85
2022/04/21 06:31:27;;;;;;;;;;;;;;;;;;5069356;28;19916;-85
2022/04/21 06:33:52;;;;;;;;;;;;;;;;;;5072641;28;19912;-85
2022/04/21 06:36:17;;;;;;;;;;;;;;;;;;5072825;28;20402;-85
2022/04/21 06:38:44;;;;;;;;;;;;;;;;;;5073844;28;19908;-85
2022/04/21 06:41:11;;;;;;;;;;;;;;;;;;5073649;28;19919;-85
2022/04/21 06:49:04;;;;;;;;;;;;;;;;;;5074957;28;19924;-85
2022/04/21 06:51:29;;;;;;;;;;;;;;;;;;5073153;28;19909;-85
2022/04/21 06:53:55;;;;;;;;;;;;;;;;;;5064004;28;20384;-85
2022/04/21 06:56:20;;;;;;;;;;;;;;;;;;5059705;28;19921;-85
2022/04/21 06:58:46;;;;;;;;;;;;;;;;;;5070079;28;20321;-85
2022/04/21 07:01:11;;;;;;;;;;;;;;;;;;5074296;28;20380;-85
2022/04/21 07:03:36;;;;;;;;;;;;;;;;;;5072970;28;19919;-85
2022/04/21 07:06:01;;;;;;;;;;;;;;;;;;5071947;28;20005;-85
2022/04/21 07:08:26;;;;;;;;;;;;;;;;;;5066755;28;19916;-85
2022/04/21 07:10:51;;;;;;;;;;;;;;;;;;5080421;28;19919;-85
2022/04/21 07:13:16;;;;;;;;;;;;;;;;;;5093048;28;19963;-85
2022/04/21 07:15:42;;;;;;;;;;;;;;;;;;5093364;28;19912;-85
2022/04/21 07:18:07;;;;;;;;;;;;;;;;;;5071978;28;19916;-85
2022/04/21 07:20:32;;;;;;;;;;;;;;;;;;5074624;28;20348;-85
2022/04/21 07:22:57;;;;;;;;;;;;;;;;;;5073226;28;19909;-85
2022/04/21 07:25:22;;;;;;;;;;;;;;;;;;5069119;28;20418;-85
2022/04/21 07:27:47;;;;;;;;;;;;;;;;;;5056743;28;20042;-85
2022/04/21 07:30:12;;;;;;;;;;;;;;;;;;5069408;28;19962;-85
2022/04/21 07:32:37;;;;;;;;;;;;;;;;;;5051257;28;19962;-85
2022/04/21 07:35:02;;;;;;;;;;;;;;;;;;5061443;28;19915;-85
2022/04/21 07:37:28;;;;;;;;;;;;;;;;;;5081216;28;19927;-85
2022/04/21 07:39:53;;;;;;;;;;;;;;;;;;5070716;28;19912;-85
2022/04/21 07:42:18;;;;;;;;;;;;;;;;;;5070844;28;20283;-85
2022/04/21 07:44:43;;;;;;;;;;;;;;;;;;5066960;28;20312;-85
2022/04/21 07:47:08;;;;;;;;;;;;;;;;;;5058126;28;19982;-85
2022/04/21 07:49:45;;;;;;;;;;;;;;;;;;5070394;28;19916;-85
2022/04/21 07:54:54;;;;;;;;;;;;;;;;;;5072879;28;20065;-85
2022/04/21 07:57:20;;;;;;;;;;;;;;;;;;5067217;28;19992;-84
2022/04/21 07:59:45;;;;;;;;;;;;;;;;;;5067742;28;19919;-85
2022/04/21 08:02:10;;;;;;;;;;;;;;;;;;5067662;28;20513;-85
2022/04/21 08:04:38;;;;;;;;;;;;;;;;;;5052281;28;19909;-85
2022/04/21 08:07:03;;;;;;;;;;;;;;;;;;5070329;28;20257;-85
2022/04/21 08:09:28;;;;;;;;;;;;;;;;;;5068237;28;20367;-85
2022/04/21 08:11:53;;;;;;;;;;;;;;;;;;5060564;28;19919;-85
2022/04/21 08:14:18;;;;;;;;;;;;;;;;;;5070578;28;19913;-85
2022/04/21 08:16:43;;;;;;;;;;;;;;;;;;5067639;28;20257;-86
2022/04/21 08:19:08;;;;;;;;;;;;;;;;;;5061799;28;19948;-85
2022/04/21 08:21:34;;;;;;;;;;;;;;;;;;5072102;28;19919;-85
2022/04/21 08:32:33;;;;;;;;;;;;;;;;;;5071781;28;19908;-85
2022/04/21 08:32:41;;;;;;;;;;;;;;;;;;5070324;28;19909;-85
2022/04/21 08:35:06;;;;;;;;;;;;;;;;;;5070361;28;20423;-85
2022/04/21 08:37:32;;;;;;;;;;;;;;;;;;5066725;28;20392;-85
2022/04/21 08:39:57;;;;;;;;;;;;;;;;;;5068594;28;19916;-85
2022/04/21 08:42:22;;;;;;;;;;;;;;;;;;5071621;28;19913;-85
2022/04/21 08:44:47;;;;;;;;;;;;;;;;;;5069793;28;20429;-86
2022/04/21 08:47:14;;;;;;;;;;;;;;;;;;5070224;28;20105;-90
2022/04/21 08:49:39;;;;;;;;;;;;;;;;;;5066412;28;20287;-89
2022/04/21 08:52:05;;;;;;;;;;;;;;;;;;5050647;28;19962;-88
2022/04/21 08:54:30;;;;;;;;;;;;;;;;;;5049795;28;19909;-88
2022/04/21 08:56:55;;;;;;;;;;;;;;;;;;5050271;28;19905;-89
2022/04/21 08:59:22;;;;;;;;;;;;;;;;;;5052103;28;19960;-87
2022/04/21 09:01:47;;;;;;;;;;;;;;;;;;5067576;28;19920;-86
2022/04/21 09:04:12;;;;;;;;;;;;;;;;;;5065540;28;19913;-87
2022/04/21 09:06:38;;;;;;;;;;;;;;;;;;5071753;28;19920;-85
2022/04/21 09:09:03;;;;;;;;;;;;;;;;;;5066719;28;19935;-85
2022/04/21 09:11:28;;;;;;;;;;;;;;;;;;5060557;28;19944;-81
2022/04/21 09:13:53;;;;;;;;;;;;;;;;;;5070807;28;19915;-81
2022/04/21 09:16:21;;;;;;;;;;;;;;;;;;5075676;28;19909;-81
2022/04/21 09:18:49;;;;;;;;;;;;;;;;;;5070348;28;19913;-82
2022/04/21 09:21:14;;;;;;;;;;;;;;;;;;5057547;28;20003;-84
2022/04/21 09:23:40;;;;;;;;;;;;;;;;;;5075902;28;19955;-84
2022/04/21 09:26:05;;;;;;;;;;;;;;;;;;5074682;28;19996;-84
2022/04/21 09:28:30;;;;;;;;;;;;;;;;;;5065348;28;19919;-84
2022/04/21 09:30:55;;;;;;;;;;;;;;;;;;5089063;28;19909;-84
2022/04/21 09:33:20;;;;;;;;;;;;;;;;;;5104043;28;20283;-84
2022/04/21 09:35:45;;;;;;;;;;;;;;;;;;5075257;28;20297;-84
2022/04/21 09:38:11;;;;;;;;;;;;;;;;;;5069596;28;19962;-84
2022/04/21 09:40:36;;;;;;;;;;;;;;;;;;5064508;28;19920;-84
2022/04/21 09:43:02;;;;;;;;;;;;;;;;;;5075779;28;19974;-84
2022/04/21 09:48:10;;;;;;;;;;;;;;;;;;5056446;28;19939;-84
2022/04/21 09:50:39;;;;;;;;;;;;;;;;;;5088672;28;19909;-84
2022/04/21 09:53:04;;;;;;;;;;;;;;;;;;5088725;28;19909;-84
2022/04/21 09:55:32;;;;;;;;;;;;;;;;;;5089563;28;19912;-83
2022/04/21 09:57:57;;;;;;;;;;;;;;;;;;5065355;28;19916;-84
2022/04/21 10:00:22;;;;;;;;;;;;;;;;;;5071910;28;20011;-84
2022/04/21 10:02:48;;;;;;;;;;;;;;;;;;5071906;28;20427;-84
2022/04/21 10:05:13;;;;;;;;;;;;;;;;;;5072501;28;19916;-84
2022/04/21 10:07:38;;;;;;;;;;;;;;;;;;5071619;28;19913;-84
2022/04/21 10:10:03;;;;;;;;;;;;;;;;;;5071911;28;20267;-84
2022/04/21 10:12:28;;;;;;;;;;;;;;;;;;5071687;28;19927;-84
2022/04/21 10:14:53;;;;;;;;;;;;;;;;;;5072242;28;20084;-84
2022/04/21 10:17:19;;;;;;;;;;;;;;;;;;5071125;28;20443;-84
2022/04/21 10:19:44;;;;;;;;;;;;;;;;;;5070944;28;19913;-84
2022/04/21 10:22:10;;;;;;;;;;;;;;;;;;5070419;28;19924;-84
2022/04/21 10:24:35;;;;;;;;;;;;;;;;;;5063509;28;20375;-84
2022/04/21 10:27:00;;;;;;;;;;;;;;;;;;5093658;28;19919;-84
2022/04/21 10:29:27;;;;;;;;;;;;;;;;;;5085104;28;19923;-84
2022/04/21 10:31:55;;;;;;;;;;;;;;;;;;5072717;28;19912;-84
2022/04/21 10:34:20;;;;;;;;;;;;;;;;;;5074478;28;19915;-84
2022/04/21 10:36:48;;;;;;;;;;;;;;;;;;5075366;28;20015;-84
2022/04/21 10:39:14;;;;;;;;;;;;;;;;;;5074775;28;19913;-84
2022/04/21 10:41:39;;;;;;;;;;;;;;;;;;5073754;28;19920;-84
2022/04/21 10:44:04;;;;;;;;;;;;;;;;;;5074278;28;19909;-84
2022/04/21 10:46:30;;;;;;;;;;;;;;;;;;5066516;28;19913;-84
2022/04/21 10:48:55;;;;;;;;;;;;;;;;;;5060116;28;19912;-85
2022/04/21 10:51:20;;;;;;;;;;;;;;;;;;5074924;28;19958;-84
2022/04/21 10:59:13;;;;;;;;;;;;;;;;;;5075113;28;20278;-84
2022/04/21 11:01:38;;;;;;;;;;;;;;;;;;5072948;28;20329;-84
2022/04/21 11:04:04;;;;;;;;;;;;;;;;;;5073678;28;20003;-84
2022/04/21 11:06:29;;;;;;;;;;;;;;;;;;5065244;28;19919;-84
2022/04/21 11:08:54;;;;;;;;;;;;;;;;;;5053596;28;19909;-84
2022/04/21 11:11:19;;;;;;;;;;;;;;;;;;5067235;28;19951;-84
2022/04/21 11:13:44;;;;;;;;;;;;;;;;;;5071266;28;20077;-84
2022/04/21 11:16:10;;;;;;;;;;;;;;;;;;5069317;28;19912;-84
2022/04/21 11:18:35;;;;;;;;;;;;;;;;;;5061424;28;20365;-84
2022/04/21 11:21:00;;;;;;;;;;;;;;;;;;5066913;28;19917;-84
2022/04/21 11:23:25;;;;;;;;;;;;;;;;;;5077472;28;20363;-84
2022/04/21 11:25:50;;;;;;;;;;;;;;;;;;5076559;28;19921;-84
2022/04/21 11:28:15;;;;;;;;;;;;;;;;;;5053467;28;20263;-85
2022/04/21 11:30:40;;;;;;;;;;;;;;;;;;5072382;28;19923;-84
2022/04/21 11:33:05;;;;;;;;;;;;;;;;;;5068263;28;19919;-84
2022/04/21 11:35:31;;;;;;;;;;;;;;;;;;5053163;28;19958;-84
2022/04/21 11:37:56;;;;;;;;;;;;;;;;;;5053885;28;20410;-84
2022/04/21 11:40:21;;;;;;;;;;;;;;;;;;5069156;28;19923;-84
2022/04/21 11:42:46;;;;;;;;;;;;;;;;;;5055508;28;19952;-85
2022/04/21 11:45:11;;;;;;;;;;;;;;;;;;5069064;28;19944;-83
2022/04/21 11:47:36;;;;;;;;;;;;;;;;;;5068724;28;20379;-84
2022/04/21 11:50:01;;;;;;;;;;;;;;;;;;5072774;28;19947;-84
2022/04/21 11:52:27;;;;;;;;;;;;;;;;;;5055822;28;20005;-87
2022/04/21 11:54:52;;;;;;;;;;;;;;;;;;5071071;28;19913;-87
2022/04/21 11:57:17;;;;;;;;;;;;;;;;;;5072916;28;20032;-87
2022/04/21 11:59:43;;;;;;;;;;;;;;;;;;5068861;28;20430;-87
2022/04/21 12:07:36;;;;;;;;;;;;;;;;;;5054169;28;19920;-87
2022/04/21 12:10:01;;;;;;;;;;;;;;;;;;5052702;28;19909;-86
2022/04/21 12:12:26;;;;;;;;;;;;;;;;;;5052812;28;19916;-86
2022/04/21 12:14:51;;;;;;;;;;;;;;;;;;5062526;28;19916;-87
2022/04/21 12:17:16;;;;;;;;;;;;;;;;;;5052675;28;19938;-86
2022/04/21 12:19:44;;;;;;;;;;;;;;;;;;5052721;28;19991;-87
2022/04/21 12:22:09;;;;;;;;;;;;;;;;;;5052733;28;19913;-87
2022/04/21 12:24:34;;;;;;;;;;;;;;;;;;5068369;28;19963;-87
2022/04/21 12:26:59;;;;;;;;;;;;;;;;;;5072740;28;20348;-87
2022/04/21 12:29:25;;;;;;;;;;;;;;;;;;5072644;28;19909;-87
2022/04/21 12:31:50;;;;;;;;;;;;;;;;;;5072625;28;19963;-86
2022/04/21 12:34:15;;;;;;;;;;;;;;;;;;5068561;28;19955;-87
2022/04/21 12:36:40;;;;;;;;;;;;;;;;;;5052538;28;19959;-87
2022/04/21 12:39:05;;;;;;;;;;;;;;;;;;5052507;28;19970;-87
2022/04/21 12:41:30;;;;;;;;;;;;;;;;;;5052733;28;20367;-87
2022/04/21 12:43:56;;;;;;;;;;;;;;;;;;5062599;28;19913;-87
2022/04/21 12:46:21;;;;;;;;;;;;;;;;;;5073568;28;19948;-87
2022/04/21 12:48:46;;;;;;;;;;;;;;;;;;5073081;28;19962;-87
2022/04/21 12:51:12;;;;;;;;;;;;;;;;;;5077819;28;19909;-87
2022/04/21 12:53:37;;;;;;;;;;;;;;;;;;5070787;28;20374;-87
2022/04/21 12:56:02;;;;;;;;;;;;;;;;;;5057662;28;19908;-87
2022/04/21 12:58:27;;;;;;;;;;;;;;;;;;5056332;28;20007;-86
2022/04/21 13:00:52;;;;;;;;;;;;;;;;;;5056204;28;20011;-88
2022/04/21 13:03:17;;;;;;;;;;;;;;;;;;5056710;28;19924;-87
2022/04/21 13:05:42;;;;;;;;;;;;;;;;;;5057908;28;19913;-87
2022/04/21 13:08:07;;;;;;;;;;;;;;;;;;5056193;28;20008;-87
2022/04/21 13:10:32;;;;;;;;;;;;;;;;;;5056160;28;20344;-87
2022/04/21 13:12:57;;;;;;;;;;;;;;;;;;5056477;28;19913;-87
2022/04/21 13:15:23;;;;;;;;;;;;;;;;;;5077277;28;19908;-87
2022/04/21 13:17:48;;;;;;;;;;;;;;;;;;5076245;28;19920;-87
2022/04/21 13:21:52;;;;;;;;;;;;;;;;;;5075924;28;19917;-87
2022/04/21 13:22:58;;;;;;;;;;;;;;;;;;5076203;28;19935;-87
2022/04/21 13:25:23;;;;;;;;;;;;;;;;;;5075960;28;19908;-87
2022/04/21 13:27:48;;;;;;;;;;;;;;;;;;5075823;28;19909;-87
2022/04/21 13:30:13;;;;;;;;;;;;;;;;;;5074905;28;19915;-87
2022/04/21 13:35:22;;;;;;;;;;;;;;;;;;5076140;28;20003;-87
2022/04/21 13:37:47;;;;;;;;;;;;;;;;;;5075595;28;19955;-86
2022/04/21 13:40:12;;;;;;;;;;;;;;;;;;5074535;28;20375;-88
2022/04/21 13:42:38;;;;;;;;;;;;;;;;;;5075395;28;19913;-87
2022/04/21 13:45:06;;;;;;;;;;;;;;;;;;5075635;28;19909;-88
2022/04/21 13:47:31;;;;;;;;;;;;;;;;;;5075338;28;20376;-89
2022/04/21 13:49:56;;;;;;;;;;;;;;;;;;5075507;28;20411;-88
2022/04/21 13:52:21;;;;;;;;;;;;;;;;;;5071568;28;20003;-88
2022/04/21 13:54:46;;;;;;;;;;;;;;;;;;5055326;28;20063;-87
2022/04/21 13:57:11;;;;;;;;;;;;;;;;;;5056805;28;19915;-87
2022/04/21 13:59:36;;;;;;;;;;;;;;;;;;5055032;28;19908;-87
2022/04/21 14:02:02;;;;;;;;;;;;;;;;;;5055924;28;19916;-88
2022/04/21 14:04:27;;;;;;;;;;;;;;;;;;5056565;28;19909;-88
2022/04/21 14:06:52;;;;;;;;;;;;;;;;;;5055164;28;19913;-87
2022/04/21 14:09:17;;;;;;;;;;;;;;;;;;5055112;28;20369;-87
2022/04/21 14:11:42;;;;;;;;;;;;;;;;;;5067752;28;19919;-88
2022/04/21 14:14:07;;;;;;;;;;;;;;;;;;5075021;28;20465;-88
2022/04/21 14:16:33;;;;;;;;;;;;;;;;;;5074943;28;19908;-89
2022/04/21 14:18:58;;;;;;;;;;;;;;;;;;5074940;28;19908;-87
2022/04/21 14:21:24;;;;;;;;;;;;;;;;;;5070742;28;19967;-88
2022/04/21 14:23:49;;;;;;;;;;;;;;;;;;5054744;28;20103;-87
2022/04/21 14:26:14;;;;;;;;;;;;;;;;;;5054721;28;19909;-87
2022/04/21 14:28:39;;;;;;;;;;;;;;;;;;5054717;28;19909;-87
2022/04/21 14:31:04;;;;;;;;;;;;;;;;;;5061313;28;19912;-87
2022/04/21 14:33:29;;;;;;;;;;;;;;;;;;5074664;28;20368;-88
2022/04/21 14:35:54;;;;;;;;;;;;;;;;;;5074548;28;19909;-88
2022/04/21 14:44:07;;;;;;;;;;;;;;;;;;5075746;28;19919;-87
2022/04/21 14:46:32;;;;;;;;;;;;;;;;;;5075568;28;19913;-87
2022/04/21 14:48:57;;;;;;;;;;;;;;;;;;5073560;28;19917;-87
2022/04/21 14:51:22;;;;;;;;;;;;;;;;;;5074254;28;20340;-87
2022/04/21 14:53:48;;;;;;;;;;;;;;;;;;5074276;28;20015;-87
2022/04/21 14:56:13;;;;;;;;;;;;;;;;;;5074217;28;19991;-87
2022/04/21 14:58:38;;;;;;;;;;;;;;;;;;5074100;28;19958;-87
2022/04/21 15:01:03;;;;;;;;;;;;;;;;;;5070140;28;20411;-87
2022/04/21 15:03:28;;;;;;;;;;;;;;;;;;5054020;28;19912;-87
2022/04/21 15:05:53;;;;;;;;;;;;;;;;;;5054061;28;19916;-88
2022/04/21 15:08:18;;;;;;;;;;;;;;;;;;5053969;28;19912;-87
2022/04/21 15:10:44;;;;;;;;;;;;;;;;;;5068895;28;19912;-87
2022/04/21 15:13:09;;;;;;;;;;;;;;;;;;5073101;28;20305;-87
2022/04/21 15:15:34;;;;;;;;;;;;;;;;;;5073934;28;19909;-88
2022/04/21 15:17:59;;;;;;;;;;;;;;;;;;5073633;28;19915;-87
2022/04/21 15:20:24;;;;;;;;;;;;;;;;;;5069655;28;19939;-88
2022/04/21 15:22:49;;;;;;;;;;;;;;;;;;5054963;28;20418;-88
2022/04/21 15:25:14;;;;;;;;;;;;;;;;;;5053629;28;19909;-87
2022/04/21 15:27:39;;;;;;;;;;;;;;;;;;5056082;28;19920;-88
2022/04/21 15:30:05;;;;;;;;;;;;;;;;;;5073460;28;19908;-88
2022/04/21 15:32:30;;;;;;;;;;;;;;;;;;5073466;28;20287;-88
2022/04/21 15:34:56;;;;;;;;;;;;;;;;;;5073444;28;20007;-88
2022/04/21 15:37:21;;;;;;;;;;;;;;;;;;5072829;28;19908;-87
2022/04/21 15:39:48;;;;;;;;;;;;;;;;;;5073506;28;20309;-88
2022/04/21 15:42:13;;;;;;;;;;;;;;;;;;5073227;28;19918;-87
2022/04/21 15:44:38;;;;;;;;;;;;;;;;;;5073264;28;19995;-87
2022/04/21 15:47:03;;;;;;;;;;;;;;;;;;5073161;28;20022;-87
2022/04/21 15:49:28;;;;;;;;;;;;;;;;;;5069234;28;20351;-88
2022/04/21 15:51:54;;;;;;;;;;;;;;;;;;5053105;28;19948;-87
2022/04/21 16:00:03;;;;;;;;;;;;;;;;;;5053973;28;19920;-88
2022/04/21 16:02:29;;;;;;;;;;;;;;;;;;5053025;28;19912;-88
2022/04/21 16:04:54;;;;;;;;;;;;;;;;;;5054228;28;19962;-88
2022/04/21 16:07:20;;;;;;;;;;;;;;;;;;5052901;28;19908;-87
2022/04/21 16:09:45;;;;;;;;;;;;;;;;;;5068369;28;19917;-88
2022/04/21 16:12:10;;;;;;;;;;;;;;;;;;5052876;28;19939;-87
2022/04/21 16:14:35;;;;;;;;;;;;;;;;;;5052748;28;20383;-88
2022/04/21 16:17:02;;;;;;;;;;;;;;;;;;5052807;28;19909;-87
2022/04/21 16:19:27;;;;;;;;;;;;;;;;;;5069273;28;20268;-88
2022/04/21 16:21:53;;;;;;;;;;;;;;;;;;5072691;28;20057;-88
2022/04/21 16:24:18;;;;;;;;;;;;;;;;;;5072739;28;19912;-88
2022/04/21 16:26:43;;;;;;;;;;;;;;;;;;5072725;28;20272;-88
2022/04/21 16:29:08;;;;;;;;;;;;;;;;;;5068740;28;19924;-88
2022/04/21 16:31:33;;;;;;;;;;;;;;;;;;5053856;28;20383;-88
2022/04/21 16:33:58;;;;;;;;;;;;;;;;;;5053885;28;19909;-88
2022/04/21 16:36:23;;;;;;;;;;;;;;;;;;5052547;28;20233;-88
2022/04/21 16:38:48;;;;;;;;;;;;;;;;;;5052563;28;20011;-88
2022/04/21 16:41:13;;;;;;;;;;;;;;;;;;5067019;28;19923;-88
2022/04/21 16:43:39;;;;;;;;;;;;;;;;;;5072558;28;20006;-87
2022/04/21 16:46:04;;;;;;;;;;;;;;;;;;5072515;28;19908;-88
2022/04/21 16:48:29;;;;;;;;;;;;;;;;;;5072483;28;19916;-88
2022/04/21 16:50:54;;;;;;;;;;;;;;;;;;5068550;28;20352;-89
2022/04/21 16:53:19;;;;;;;;;;;;;;;;;;5052316;28;19916;-88
2022/04/21 16:55:45;;;;;;;;;;;;;;;;;;5052300;28;20280;-87
2022/04/21 16:58:10;;;;;;;;;;;;;;;;;;5052509;28;19920;-88
2022/04/21 17:03:19;;;;;;;;;;;;;;;;;;5073708;28;19997;-88
2022/04/21 17:05:44;;;;;;;;;;;;;;;;;;5072319;28;19959;-88
2022/04/21 17:08:09;;;;;;;;;;;;;;;;;;5072320;28;19913;-88
2022/04/21 17:10:35;;;;;;;;;;;;;;;;;;5071518;28;20378;-87
2022/04/21 17:13:00;;;;;;;;;;;;;;;;;;5068602;28;19909;-88
2022/04/21 17:15:25;;;;;;;;;;;;;;;;;;5052262;28;19909;-87
2022/04/21 17:17:50;;;;;;;;;;;;;;;;;;5052193;28;19962;-87
2022/04/21 17:20:15;;;;;;;;;;;;;;;;;;5053289;28;19909;-88
2022/04/21 17:22:40;;;;;;;;;;;;;;;;;;5052043;28;19915;-86
2022/04/21 17:25:05;;;;;;;;;;;;;;;;;;5069917;28;19920;-88
2022/04/21 17:27:30;;;;;;;;;;;;;;;;;;5072123;28;19912;-88
2022/04/21 17:29:56;;;;;;;;;;;;;;;;;;5072080;28;20010;-87
2022/04/21 17:32:21;;;;;;;;;;;;;;;;;;5072068;28;19908;-87